Aérodrome :
LOGIN :

S'inscrire | Disclaimer

   EN    FR    IT 

 










Légende :    VFR   VFR Marginal   IFR   IFR Intensif   IFR Très Intensif
Visi : 
Plafond : 
>= 8 km
>= 3000ft
5 à 8 km
1000 à 3000 ft
1500m à 5 km
500 à 1000 ft
800 à 1500m
200 à 500 ft
< 800m
< 200 ft
Symboles :   Orages  Brouillard  Fortes neiges  Fortes précipitations  Vent > 20 kt
SIGMETs :   Divers  Orages  Givrage  Turbulence  Onde Orograph.  Cendres Volcan.






- Altitude de l'aérodrome : 13 ft
- Code IATA : GOA


LIMJ - Genoa Cristoforo Colombo

DERNIER METAR :
  • 030950Z 14010KT 9999 FEW015 BKN025 21/18 Q1010

METARs EXPIRÉS :
  • 030920Z 11016KT 9999 BKN028 21/17 Q1010
  • 030850Z 11015KT 9999 BKN025 21/17 Q1010
  • 030820Z 10012KT 9999 BKN028 21/16 Q1010
  • 030750Z 10012KT 9999 BKN025 20/16 Q1010
  • 030720Z 09008KT 050V120 9999 FEW020 BKN027 20/16 Q1010
  • 030650Z 06004KT 030V090 9999 FEW020 BKN025 20/15 Q1010

TAF TAF LIMJ
Valide du 03 à 06h jusqu'au 04 à 06h UTC


030500Z 0306/0406 VRB05KT CAVOK
TEMPO 0306/0318 4000 RA
BECMG 0308/0310 16010KT



MET'MAP, la Météo Aéronautique d'un coup d'oeil ! - Copyright ORBIFLY Décembre 2007 - Disclaimer

ORBIFLY MET'MAP TEAM :

Programmation & Développement : Alexandra Zaïnal
Sur une idée originale de : Baudouin d'Aumeries
Assistance à la programmation : Marc-Olivier Méhu
Soutien technique & logistique : Manuel Goepfert

Contact : metmap@orbifly.com




SOURCES & CREDITS :

   NOAA